createdAt,value
2022-09-23T00:01:14.368Z,29.75
2022-09-23T00:03:42.316Z,30.52
2022-09-23T00:06:19.668Z,27.98
2022-09-23T00:08:46.677Z,30.02
2022-09-23T00:11:15.257Z,30.58
2022-09-23T00:13:43.118Z,29.98
2022-09-23T00:16:12.752Z,35.25
2022-09-23T00:18:39.634Z,31.05
2022-09-23T00:21:07.356Z,31.30
2022-09-23T00:23:34.301Z,31.20
2022-09-23T00:26:01.869Z,32.20
2022-09-23T00:28:29.105Z,32.25
2022-09-23T00:30:56.284Z,29.35
2022-09-23T00:33:23.193Z,31.05
2022-09-23T00:35:49.962Z,31.70
2022-09-23T00:38:17.238Z,32.28
2022-09-23T00:40:44.835Z,32.92
2022-09-23T00:43:13.022Z,27.63
2022-09-23T00:45:40.937Z,32.72
2022-09-23T00:48:08.893Z,31.40
2022-09-23T00:50:40.065Z,30.30
2022-09-23T00:53:08.076Z,30.05
2022-09-23T00:55:39.226Z,30.33
2022-09-23T00:58:08.016Z,34.08
2022-09-23T01:00:35.634Z,32.65
2022-09-23T01:03:02.582Z,31.25
2022-09-23T01:05:29.371Z,27.00
2022-09-23T01:07:57.532Z,29.10
2022-09-23T01:10:24.374Z,28.92
2022-09-23T01:13:16.155Z,29.02
2022-09-23T01:16:08.375Z,32.75
2022-09-23T01:18:45.518Z,29.33
2022-09-23T01:21:21.406Z,27.02
2022-09-23T01:24:02.448Z,26.70
2022-09-23T01:26:51.333Z,26.08
2022-09-23T01:29:55.067Z,29.30
2022-09-23T01:33:04.795Z,29.60
2022-09-23T01:36:05.261Z,28.25
2022-09-23T01:38:39.741Z,27.25
2022-09-23T01:41:13.214Z,27.23
2022-09-23T01:43:47.298Z,27.67
2022-09-23T01:46:19.820Z,29.40
2022-09-23T01:48:51.424Z,25.65
2022-09-23T01:51:23.922Z,28.67
2022-09-23T01:54:18.952Z,26.58
2022-09-23T01:56:56.335Z,30.80
2022-09-23T01:59:35.849Z,28.83
2022-09-23T02:02:15.364Z,29.58
2022-09-23T02:04:48.080Z,26.02
2022-09-23T02:07:20.364Z,25.75
2022-09-23T02:09:52.658Z,30.05
2022-09-23T02:12:20.368Z,26.65
2022-09-23T02:14:56.644Z,23.08
2022-09-23T02:17:31.646Z,26.17
2022-09-23T02:20:01.683Z,25.92
2022-09-23T02:22:35.360Z,24.75
2022-09-23T02:25:03.273Z,21.80
2022-09-23T02:27:34.864Z,23.23
2022-09-23T02:30:21.862Z,24.27
2022-09-23T02:32:53.334Z,25.60
2022-09-23T02:35:33.357Z,22.80
2022-09-23T02:38:18.689Z,19.90
2022-09-23T02:40:46.037Z,24.30
2022-09-23T02:43:24.425Z,22.92
2022-09-23T02:45:51.264Z,23.70
2022-09-23T02:48:30.680Z,25.52
2022-09-23T02:50:57.933Z,22.27
2022-09-23T02:53:25.053Z,22.75
2022-09-23T02:55:51.844Z,20.58
2022-09-23T02:58:18.632Z,23.15
2022-09-23T03:00:50.180Z,22.35
2022-09-23T03:03:46.972Z,20.63
2022-09-23T03:06:30.224Z,20.50
2022-09-23T03:09:13.015Z,19.17
2022-09-23T03:11:40.583Z,20.63
2022-09-23T03:14:19.855Z,22.38
2022-09-23T03:16:55.936Z,22.00
2022-09-23T03:19:56.097Z,18.10
2022-09-23T03:22:28.041Z,21.08
2022-09-23T03:24:54.817Z,18.83
2022-09-23T03:27:24.132Z,21.23
2022-09-23T03:29:51.776Z,21.92
2022-09-23T03:32:20.200Z,16.88
2022-09-23T03:34:49.083Z,19.73
2022-09-23T03:37:18.049Z,18.48
2022-09-23T03:39:49.930Z,18.92
2022-09-23T03:42:21.189Z,19.40
2022-09-23T03:44:48.286Z,20.45
2022-09-23T03:47:15.782Z,21.13
2022-09-23T03:49:43.833Z,20.92
2022-09-23T03:52:11.167Z,22.95
2022-09-23T03:54:37.969Z,21.35
2022-09-23T03:57:05.140Z,21.58
2022-09-23T03:59:31.964Z,19.45
2022-09-23T04:01:59.629Z,21.23
2022-09-23T04:04:27.673Z,19.40
2022-09-23T04:06:57.837Z,18.92
2022-09-23T04:09:24.653Z,17.58
2022-09-23T04:11:52.086Z,18.00
2022-09-23T04:14:19.465Z,18.65
2022-09-23T04:16:46.963Z,16.23
2022-09-23T04:19:14.246Z,20.08
2022-09-23T04:21:41.316Z,17.58
2022-09-23T04:24:08.270Z,17.25
2022-09-23T04:26:35.493Z,17.63
2022-09-23T04:29:02.547Z,15.90
2022-09-23T04:31:29.437Z,17.15
2022-09-23T04:33:56.734Z,19.20
2022-09-23T04:36:23.533Z,15.70
2022-09-23T04:38:50.809Z,19.23
2022-09-23T04:41:18.213Z,17.08
2022-09-23T04:43:45.264Z,15.88
2022-09-23T04:46:13.478Z,17.67
2022-09-23T04:48:41.644Z,15.15
2022-09-23T04:51:19.264Z,13.70
2022-09-23T04:53:47.324Z,16.30
2022-09-23T04:56:18.653Z,15.88
2022-09-23T04:58:46.102Z,13.00
2022-09-23T05:01:17.480Z,14.07
2022-09-23T05:03:44.652Z,16.25
2022-09-23T05:06:13.805Z,15.48
2022-09-23T05:08:41.664Z,14.65
2022-09-23T05:11:09.018Z,13.63
2022-09-23T05:13:36.216Z,17.80
2022-09-23T05:16:05.061Z,17.05
2022-09-23T05:18:32.647Z,15.05
2022-09-23T05:21:00.238Z,13.50
2022-09-23T05:23:27.563Z,14.98
2022-09-23T05:26:02.850Z,14.52
2022-09-23T05:28:32.394Z,13.95
2022-09-23T05:31:20.575Z,13.80
2022-09-23T05:33:54.179Z,17.70
2022-09-23T05:36:21.639Z,14.07
2022-09-23T05:38:51.582Z,12.63
2022-09-23T05:41:19.656Z,14.80
2022-09-23T05:43:47.427Z,11.38
2022-09-23T05:46:19.587Z,14.70
2022-09-23T05:48:47.295Z,12.48
2022-09-23T05:51:19.003Z,14.65
2022-09-23T05:53:46.550Z,14.82
2022-09-23T05:56:17.716Z,15.68
2022-09-23T05:58:44.681Z,14.80
2022-09-23T06:01:13.303Z,13.73
2022-09-23T06:03:40.319Z,13.88
2022-09-23T06:06:07.767Z,12.85
2022-09-23T06:08:34.932Z,14.80
2022-09-23T06:11:07.754Z,16.50
2022-09-23T06:13:38.258Z,13.00
2022-09-23T06:16:13.006Z,13.68
2022-09-23T06:18:40.830Z,11.68
2022-09-23T06:21:09.311Z,13.63
2022-09-23T06:23:39.480Z,14.18
2022-09-23T06:26:09.708Z,14.05
2022-09-23T06:28:37.878Z,17.70
2022-09-23T06:31:13.394Z,13.23
2022-09-23T06:33:45.043Z,14.02
2022-09-23T06:36:13.116Z,13.50
2022-09-23T06:38:44.692Z,12.85
2022-09-23T06:41:12.108Z,10.95
2022-09-23T06:43:38.987Z,12.43
2022-09-23T06:46:07.375Z,14.02
2022-09-23T06:48:35.347Z,14.82
2022-09-23T06:51:04.178Z,12.80
2022-09-23T06:53:34.121Z,12.88
2022-09-23T06:56:02.643Z,10.15
2022-09-23T06:58:30.140Z,12.40
2022-09-23T07:01:08.519Z,10.38
2022-09-23T07:03:35.726Z,10.88
2022-09-23T07:06:02.952Z,16.25
2022-09-23T07:08:30.146Z,12.50
2022-09-23T07:10:58.170Z,10.88
2022-09-23T07:13:25.294Z,13.27
2022-09-23T07:15:58.559Z,12.57
2022-09-23T07:18:25.931Z,11.02
2022-09-23T07:20:53.268Z,9.88
2022-09-23T07:23:20.257Z,11.70
2022-09-23T07:25:49.480Z,11.35
2022-09-23T07:28:16.539Z,9.63
2022-09-23T07:30:55.005Z,10.90
2022-09-23T07:33:31.822Z,10.75
2022-09-23T07:35:59.627Z,8.73
2022-09-23T07:38:30.230Z,10.07
2022-09-23T07:41:08.109Z,9.45
2022-09-23T07:43:35.435Z,9.48
2022-09-23T07:46:04.161Z,8.82
2022-09-23T07:48:34.336Z,10.90
2022-09-23T07:51:19.065Z,9.85
2022-09-23T07:53:52.095Z,11.38
2022-09-23T07:56:19.967Z,11.15
2022-09-23T07:59:00.019Z,10.00
2022-09-23T08:01:33.152Z,7.55
2022-09-23T08:04:21.673Z,9.82
2022-09-23T08:06:50.396Z,10.18
2022-09-23T08:09:18.845Z,7.68
2022-09-23T08:11:45.780Z,7.20
2022-09-23T08:14:13.653Z,7.40
2022-09-23T08:16:41.268Z,8.77
2022-09-23T08:19:08.343Z,8.25
2022-09-23T08:21:35.492Z,9.55
2022-09-23T08:24:02.599Z,9.35
2022-09-23T08:26:29.398Z,7.68
2022-09-23T08:28:56.574Z,7.70
2022-09-23T08:31:23.578Z,7.70
2022-09-23T08:33:57.091Z,8.18
2022-09-23T08:36:24.747Z,7.97
2022-09-23T08:38:51.637Z,8.90
2022-09-23T08:41:40.210Z,5.95
2022-09-23T08:44:13.798Z,7.45
2022-09-23T08:46:44.906Z,7.40
2022-09-23T08:49:12.398Z,6.30
2022-09-23T08:51:46.256Z,6.93
2022-09-23T08:54:13.531Z,8.35
2022-09-23T08:56:40.349Z,7.25
2022-09-23T08:59:38.354Z,7.82
2022-09-23T09:02:20.232Z,6.55
2022-09-23T09:04:54.577Z,6.93
2022-09-23T09:07:36.523Z,5.68
2022-09-23T09:10:03.855Z,6.00
2022-09-23T09:12:45.297Z,6.28
2022-09-23T09:15:27.380Z,6.18
2022-09-23T09:18:14.051Z,5.28
2022-09-23T09:20:57.173Z,5.07
2022-09-23T09:23:30.113Z,5.70
2022-09-23T09:26:01.648Z,5.28
2022-09-23T09:28:36.368Z,5.10
2022-09-23T09:31:14.972Z,5.50
2022-09-23T09:33:47.827Z,5.38
2022-09-23T09:36:36.127Z,5.75
2022-09-23T09:39:03.695Z,3.80
2022-09-23T09:41:31.609Z,4.03
2022-09-23T09:44:00.700Z,5.15
2022-09-23T09:46:51.334Z,5.95
2022-09-23T09:49:40.889Z,5.95
2022-09-23T09:52:12.209Z,4.43
2022-09-23T09:54:39.637Z,5.10
2022-09-23T09:57:12.412Z,5.72
2022-09-23T09:59:44.126Z,4.63
2022-09-23T10:02:25.581Z,3.20
2022-09-23T10:04:58.094Z,4.43
2022-09-23T10:07:27.195Z,2.58
2022-09-23T10:09:58.345Z,3.85
2022-09-23T10:12:28.688Z,3.50
2022-09-23T10:14:56.684Z,3.15
2022-09-23T10:17:26.460Z,2.45
2022-09-23T10:20:06.918Z,4.65
2022-09-23T10:22:39.787Z,4.53
2022-09-23T10:25:16.425Z,4.00
2022-09-23T10:27:45.769Z,2.90
2022-09-23T10:30:22.620Z,4.05
2022-09-23T10:32:50.847Z,2.47
2022-09-23T10:35:21.037Z,3.45
2022-09-23T10:37:52.648Z,2.88
2022-09-23T10:40:51.076Z,3.10
2022-09-23T10:43:39.574Z,3.40
2022-09-23T10:46:27.523Z,3.63
2022-09-23T10:49:09.163Z,2.25
2022-09-23T10:51:57.941Z,2.38
2022-09-23T10:54:52.183Z,1.27
2022-09-23T10:57:42.480Z,4.07
2022-09-23T11:00:23.569Z,3.03
2022-09-23T11:03:02.866Z,1.60
2022-09-23T11:05:55.463Z,2.40
2022-09-23T11:09:00.073Z,1.80
2022-09-23T11:11:52.460Z,1.95
2022-09-23T11:14:40.772Z,2.42
2022-09-23T11:17:45.279Z,1.50
2022-09-23T11:20:46.616Z,2.95
2022-09-23T11:23:13.451Z,2.45
2022-09-23T11:25:50.574Z,4.05
2022-09-23T11:28:39.948Z,2.42
2022-09-23T11:31:40.545Z,2.17
2022-09-23T11:34:43.702Z,1.50
2022-09-23T11:37:15.469Z,1.95
2022-09-23T11:39:59.871Z,1.73
2022-09-23T11:42:32.901Z,2.20
2022-09-23T11:45:02.324Z,1.58
2022-09-23T11:47:55.016Z,1.48
2022-09-23T11:50:44.743Z,1.77
2022-09-23T11:53:36.380Z,2.40
2022-09-23T11:56:30.092Z,1.77
2022-09-23T11:59:06.662Z,2.47
2022-09-23T12:01:38.535Z,2.13
2022-09-23T12:04:29.187Z,1.80
2022-09-23T12:07:08.673Z,1.77
2022-09-23T12:09:58.556Z,1.45
2022-09-23T12:12:39.292Z,1.48
2022-09-23T12:15:17.663Z,1.63
2022-09-23T12:17:59.773Z,1.40
2022-09-23T12:20:42.275Z,2.88
2022-09-23T12:23:13.317Z,1.45
2022-09-23T12:25:57.847Z,1.80
2022-09-23T12:28:27.473Z,1.40
2022-09-23T12:30:55.409Z,1.17
2022-09-23T12:33:24.668Z,1.98
2022-09-23T12:35:53.543Z,2.60
2022-09-23T12:38:36.794Z,2.03
2022-09-23T12:41:19.634Z,1.23
2022-09-23T12:43:58.948Z,1.48
2022-09-23T12:46:27.621Z,1.30
2022-09-23T12:48:57.974Z,1.30
2022-09-23T12:51:29.175Z,2.90
2022-09-23T12:53:57.318Z,1.60
2022-09-23T12:56:36.280Z,2.13
2022-09-23T12:59:21.954Z,2.53
2022-09-23T13:01:48.876Z,2.95
2022-09-23T13:04:47.851Z,2.30
2022-09-23T13:07:16.760Z,2.15
2022-09-23T13:09:48.037Z,1.90
2022-09-23T13:12:25.280Z,1.85
2022-09-23T13:14:53.485Z,2.00
2022-09-23T13:17:33.353Z,2.13
2022-09-23T13:20:25.830Z,1.88
2022-09-23T13:22:52.583Z,1.92
2022-09-23T13:25:24.537Z,2.03
2022-09-23T13:27:55.888Z,1.52
2022-09-23T13:30:26.410Z,1.35
2022-09-23T13:33:05.224Z,2.65
2022-09-23T13:35:36.280Z,1.70
2022-09-23T13:38:20.215Z,1.55
2022-09-23T13:40:47.495Z,1.45
2022-09-23T13:43:40.264Z,1.30
2022-09-23T13:46:19.567Z,2.03
2022-09-23T13:48:47.938Z,1.45
2022-09-23T13:51:24.642Z,1.65
2022-09-23T13:53:55.355Z,1.88
2022-09-23T13:56:22.603Z,2.50
2022-09-23T13:58:49.384Z,1.58
2022-09-23T14:01:36.907Z,1.92
2022-09-23T14:04:04.120Z,1.48
2022-09-23T14:06:31.125Z,1.27
2022-09-23T14:08:58.241Z,2.22
2022-09-23T14:11:33.208Z,2.65
2022-09-23T14:14:00.872Z,1.75
2022-09-23T14:16:28.276Z,2.38
2022-09-23T14:18:59.525Z,1.95
2022-09-23T14:21:35.017Z,1.67
2022-09-23T14:24:14.927Z,1.58
2022-09-23T14:26:43.013Z,1.90
2022-09-23T14:29:23.949Z,2.50
2022-09-23T14:31:59.911Z,2.47
2022-09-23T14:34:46.677Z,3.88
2022-09-23T14:37:42.689Z,2.70
2022-09-23T14:40:13.170Z,4.57
2022-09-23T14:43:01.799Z,2.83
2022-09-23T14:45:31.765Z,3.10
2022-09-23T14:48:14.696Z,2.88
2022-09-23T14:50:47.567Z,3.33
2022-09-23T14:53:19.029Z,4.13
2022-09-23T14:55:52.760Z,2.40
2022-09-23T14:58:22.673Z,2.47
2022-09-23T15:00:54.303Z,2.45
2022-09-23T15:03:21.274Z,3.67
2022-09-23T15:05:49.049Z,2.90
2022-09-23T15:08:21.328Z,2.42
2022-09-23T15:10:48.085Z,2.78
2022-09-23T15:13:20.694Z,2.50
2022-09-23T15:15:47.793Z,2.80
2022-09-23T15:18:18.821Z,2.47
2022-09-23T15:20:52.251Z,2.15
2022-09-23T15:23:35.775Z,2.38
2022-09-23T15:26:24.346Z,4.93
2022-09-23T15:28:53.685Z,2.67
2022-09-23T15:31:21.323Z,3.92
2022-09-23T15:33:48.246Z,2.53
2022-09-23T15:36:19.218Z,2.75
2022-09-23T15:38:46.234Z,2.78
2022-09-23T15:41:14.348Z,2.35
2022-09-23T15:43:44.592Z,2.75
2022-09-23T15:46:20.747Z,2.80
2022-09-23T15:49:00.185Z,2.97
2022-09-23T15:51:27.638Z,3.03
2022-09-23T15:53:56.412Z,3.13
2022-09-23T15:56:23.765Z,2.55
2022-09-23T15:58:50.622Z,2.60
2022-09-23T16:01:21.131Z,3.58
2022-09-23T16:03:48.019Z,2.83
2022-09-23T16:06:15.495Z,5.72
2022-09-23T16:08:42.588Z,6.75
2022-09-23T16:11:19.617Z,5.35
2022-09-23T16:13:46.751Z,4.43
2022-09-23T16:16:13.677Z,3.08
2022-09-23T16:18:42.423Z,2.58
2022-09-23T16:21:17.660Z,2.47
2022-09-23T16:23:47.468Z,3.75
2022-09-23T16:26:24.372Z,2.63
2022-09-23T16:28:53.076Z,4.25
2022-09-23T16:31:21.011Z,3.08
2022-09-23T16:33:48.298Z,3.00
2022-09-23T16:36:28.984Z,4.40
2022-09-23T16:38:56.087Z,4.13
2022-09-23T16:41:23.836Z,4.28
2022-09-23T16:43:51.373Z,3.40
2022-09-23T16:46:18.566Z,3.40
2022-09-23T16:48:51.422Z,2.83
2022-09-23T16:51:23.952Z,3.38
2022-09-23T16:53:51.523Z,5.38
2022-09-23T16:56:23.035Z,2.95
2022-09-23T16:58:53.036Z,4.20
2022-09-23T17:01:59.674Z,5.70
2022-09-23T17:04:27.755Z,7.05
2022-09-23T17:06:54.964Z,4.07
2022-09-23T17:09:24.658Z,5.60
2022-09-23T17:11:56.377Z,3.78
2022-09-23T17:14:23.177Z,4.03
2022-09-23T17:16:50.094Z,5.53
2022-09-23T17:19:17.195Z,5.90
2022-09-23T17:21:44.069Z,6.10
2022-09-23T17:24:10.935Z,6.55
2022-09-23T17:26:38.247Z,5.68
2022-09-23T17:29:05.609Z,7.22
2022-09-23T17:31:32.502Z,7.90
2022-09-23T17:33:59.667Z,6.35
2022-09-23T17:36:28.251Z,8.48
2022-09-23T17:38:55.024Z,7.68
2022-09-23T17:41:22.125Z,10.27
2022-09-23T17:43:54.455Z,9.27
2022-09-23T17:46:21.229Z,10.57
2022-09-23T17:48:48.685Z,9.65
2022-09-23T17:51:17.623Z,9.23
2022-09-23T17:53:45.379Z,10.77
2022-09-23T17:56:25.872Z,11.23
2022-09-23T17:58:53.541Z,11.05
2022-09-23T18:01:22.426Z,11.32
2022-09-23T18:04:02.300Z,13.35
2022-09-23T18:06:33.496Z,14.93
2022-09-23T18:09:06.730Z,16.48
2022-09-23T18:11:44.343Z,15.20
2022-09-23T18:14:19.149Z,20.58
2022-09-23T18:19:18.673Z,20.05
2022-09-23T18:21:50.533Z,19.27
2022-09-23T18:24:34.004Z,17.67
2022-09-23T18:27:01.525Z,21.48
2022-09-23T18:29:28.786Z,23.17
2022-09-23T18:31:55.783Z,22.67
2022-09-23T18:34:23.590Z,23.20
2022-09-23T18:36:50.865Z,24.75
2022-09-23T18:39:17.852Z,26.55
2022-09-23T18:41:44.617Z,28.65
2022-09-23T18:44:11.763Z,29.90
2022-09-23T18:46:38.615Z,29.77
2022-09-23T18:49:24.020Z,29.15
2022-09-23T18:51:53.680Z,31.10
2022-09-23T18:54:20.610Z,35.63
2022-09-23T18:56:47.468Z,35.13
2022-09-23T18:59:17.588Z,30.88
2022-09-23T19:01:45.966Z,33.55
2022-09-23T19:04:14.036Z,36.13
2022-09-23T19:06:41.171Z,39.03
2022-09-23T19:09:08.262Z,39.22
2022-09-23T19:11:36.327Z,38.15
2022-09-23T19:14:04.953Z,38.45
2022-09-23T19:16:31.950Z,44.63
2022-09-23T19:19:02.157Z,41.60
2022-09-23T19:21:29.403Z,37.83
2022-09-23T19:23:57.904Z,38.35
2022-09-23T19:26:26.818Z,41.92
2022-09-23T19:28:55.279Z,42.53
2022-09-23T19:31:24.222Z,42.83
2022-09-23T19:33:58.881Z,43.13
2022-09-23T19:36:30.870Z,44.13
2022-09-23T19:38:59.104Z,47.25
2022-09-23T19:41:28.117Z,48.28
2022-09-23T19:43:55.217Z,48.92
2022-09-23T19:46:22.398Z,50.65
2022-09-23T19:48:49.620Z,53.17
2022-09-23T19:51:22.593Z,50.40
2022-09-23T19:53:49.356Z,54.00
2022-09-23T19:56:17.928Z,49.08
2022-09-23T19:58:47.313Z,52.45
2022-09-23T20:01:17.649Z,53.40
2022-09-23T20:03:45.254Z,54.50
2022-09-23T20:06:12.049Z,51.30
2022-09-23T20:08:39.291Z,50.42
2022-09-23T20:11:22.639Z,53.35
2022-09-23T20:13:58.420Z,53.67
2022-09-23T20:16:25.710Z,56.72
2022-09-23T20:18:52.640Z,56.17
2022-09-23T20:21:19.483Z,53.88
2022-09-23T20:23:46.688Z,52.42
2022-09-23T20:26:32.088Z,56.97
2022-09-23T20:31:29.353Z,54.83
2022-09-23T20:33:58.529Z,58.15
2022-09-23T20:36:26.339Z,54.67
2022-09-23T20:38:57.147Z,57.25
2022-09-23T20:41:24.019Z,56.97
2022-09-23T20:43:54.767Z,58.42
2022-09-23T20:46:24.421Z,58.45
2022-09-23T20:48:51.415Z,58.83
2022-09-23T20:51:18.945Z,57.63
2022-09-23T20:53:49.168Z,61.35
2022-09-23T20:56:16.544Z,59.25
2022-09-23T20:58:44.570Z,61.78
2022-09-23T21:01:11.605Z,61.53
2022-09-23T21:03:39.906Z,62.92
2022-09-23T21:06:08.005Z,62.13
2022-09-23T21:08:35.463Z,60.22
2022-09-23T21:11:06.132Z,66.20
2022-09-23T21:13:33.620Z,65.75
2022-09-23T21:16:08.983Z,63.28
2022-09-23T21:18:37.530Z,65.95
2022-09-23T21:21:05.443Z,61.97
2022-09-23T21:23:34.166Z,60.97
2022-09-23T21:26:06.622Z,68.05
2022-09-23T21:28:38.236Z,68.82
2022-09-23T21:31:10.145Z,70.35
2022-09-23T21:33:37.531Z,67.43
2022-09-23T21:36:05.779Z,72.72
2022-09-23T21:38:36.632Z,70.28
2022-09-23T21:41:05.780Z,68.43
2022-09-23T21:43:33.981Z,71.15
2022-09-23T21:46:03.360Z,70.32
2022-09-23T21:48:31.003Z,70.07
2022-09-23T21:50:59.120Z,71.43
2022-09-23T21:53:26.765Z,71.32
2022-09-23T21:55:54.132Z,72.32
2022-09-23T21:58:22.587Z,68.47
2022-09-23T22:00:49.657Z,69.15
2022-09-23T22:03:16.587Z,65.60
2022-09-23T22:05:44.067Z,69.78
2022-09-23T22:08:11.195Z,69.80
2022-09-23T22:10:38.004Z,69.07
2022-09-23T22:13:10.454Z,72.47
2022-09-23T22:15:39.728Z,70.35
2022-09-23T22:18:06.593Z,62.95
2022-09-23T22:20:33.927Z,68.40
2022-09-23T22:23:00.976Z,68.20
2022-09-23T22:25:28.706Z,65.97
2022-09-23T22:28:13.719Z,67.72
2022-09-23T22:30:59.429Z,63.55
2022-09-23T22:33:26.270Z,66.35
2022-09-23T22:36:01.517Z,65.45
2022-09-23T22:38:28.328Z,61.92
2022-09-23T22:40:55.564Z,62.45
2022-09-23T22:43:22.462Z,65.20
2022-09-23T22:45:50.850Z,65.47
2022-09-23T22:48:19.235Z,63.70
2022-09-23T22:50:46.209Z,63.72
2022-09-23T22:53:13.973Z,61.67
2022-09-23T22:55:42.126Z,60.17
2022-09-23T22:58:30.702Z,59.50
2022-09-23T23:00:57.228Z,57.42
2022-09-23T23:03:26.646Z,67.75
2022-09-23T23:05:57.547Z,60.83
2022-09-23T23:08:24.621Z,58.60
2022-09-23T23:10:51.425Z,60.10
2022-09-23T23:13:18.193Z,62.72
2022-09-23T23:15:45.282Z,56.22
2022-09-23T23:18:12.889Z,57.33
2022-09-23T23:20:39.714Z,60.15
2022-09-23T23:23:07.125Z,59.47
2022-09-23T23:25:34.141Z,57.10
2022-09-23T23:28:01.074Z,60.42
2022-09-23T23:30:28.107Z,55.60
2022-09-23T23:32:54.951Z,57.15
2022-09-23T23:35:21.710Z,55.95
2022-09-23T23:37:48.795Z,53.88
2022-09-23T23:40:15.797Z,52.50
2022-09-23T23:42:42.752Z,54.13
2022-09-23T23:45:09.894Z,51.63
2022-09-23T23:47:36.653Z,53.50
2022-09-23T23:50:04.488Z,56.28
2022-09-23T23:52:31.585Z,54.03
2022-09-23T23:54:58.357Z,52.05
2022-09-23T23:57:25.228Z,51.75
2022-09-23T23:59:52.289Z,48.20
